createdAt,value
2022-10-25T00:01:09.122Z,45.6
2022-10-25T00:03:13.517Z,45.56
2022-10-25T00:05:17.892Z,45.58
2022-10-25T00:07:22.286Z,45.68
2022-10-25T00:09:26.638Z,45.63
2022-10-25T00:11:31.050Z,45.51
2022-10-25T00:13:35.399Z,45.56
2022-10-25T00:15:39.741Z,45.54
2022-10-25T00:17:44.731Z,45.65
2022-10-25T00:19:49.155Z,45.76
2022-10-25T00:21:53.468Z,45.79
2022-10-25T00:23:57.859Z,45.95
2022-10-25T00:26:02.281Z,45.89
2022-10-25T00:28:06.635Z,45.85
2022-10-25T00:30:10.986Z,45.79
2022-10-25T00:32:15.455Z,45.71
2022-10-25T00:34:19.798Z,45.7
2022-10-25T00:36:24.157Z,45.87
2022-10-25T00:38:28.491Z,45.83
2022-10-25T00:40:32.876Z,45.84
2022-10-25T00:42:37.281Z,45.96
2022-10-25T00:44:41.676Z,46
2022-10-25T00:46:46.063Z,46.14
2022-10-25T00:48:50.430Z,46
2022-10-25T00:50:56.676Z,46.01
2022-10-25T00:53:01.070Z,45.84
2022-10-25T00:55:05.444Z,45.85
2022-10-25T00:57:09.805Z,45.92
2022-10-25T00:59:14.184Z,45.82
2022-10-25T01:01:19.014Z,45.98
2022-10-25T01:03:23.467Z,45.88
2022-10-25T01:05:27.818Z,45.8
2022-10-25T01:07:32.145Z,45.76
2022-10-25T01:09:36.515Z,45.75
2022-10-25T01:11:40.857Z,45.75
2022-10-25T01:13:45.293Z,45.79
2022-10-25T01:15:49.793Z,45.74
2022-10-25T01:17:54.121Z,45.72
2022-10-25T01:19:58.491Z,45.59
2022-10-25T01:22:02.864Z,45.59
2022-10-25T01:24:07.272Z,45.63
2022-10-25T01:26:11.609Z,45.51
2022-10-25T01:28:15.982Z,45.47
2022-10-25T01:30:20.320Z,45.4
2022-10-25T01:32:24.652Z,45.54
2022-10-25T01:34:28.974Z,45.53
2022-10-25T01:36:33.338Z,45.55
2022-10-25T01:38:37.656Z,45.42
2022-10-25T01:40:42.062Z,45.55
2022-10-25T01:42:46.408Z,45.55
2022-10-25T01:44:50.741Z,45.5
2022-10-25T01:46:55.080Z,45.57
2022-10-25T01:48:59.416Z,45.42
2022-10-25T01:51:03.762Z,45.41
2022-10-25T01:53:08.150Z,45.45
2022-10-25T01:55:12.461Z,45.42
2022-10-25T01:57:16.829Z,45.45
2022-10-25T01:59:21.161Z,45.4
2022-10-25T02:01:26.352Z,45.36
2022-10-25T02:03:30.809Z,45.41
2022-10-25T02:05:35.116Z,45.38
2022-10-25T02:07:39.439Z,45.42
2022-10-25T02:09:43.833Z,45.22
2022-10-25T02:11:48.178Z,45.3
2022-10-25T02:13:52.542Z,45.32
2022-10-25T02:15:56.871Z,45.32
2022-10-25T02:18:01.258Z,45.33
2022-10-25T02:20:05.602Z,45.26
2022-10-25T02:22:10.077Z,45.14
2022-10-25T02:24:14.568Z,45.19
2022-10-25T02:26:18.910Z,45.16
2022-10-25T02:28:23.238Z,45.2
2022-10-25T02:30:27.588Z,45.2
2022-10-25T02:32:31.950Z,45.18
2022-10-25T02:34:36.326Z,45.16
2022-10-25T02:36:40.673Z,45.16
2022-10-25T02:38:44.997Z,45.08
2022-10-25T02:40:49.355Z,45.05
2022-10-25T02:42:53.752Z,45.03
2022-10-25T02:44:58.093Z,45.1
2022-10-25T02:47:02.419Z,45.17
2022-10-25T02:49:06.812Z,45.14
2022-10-25T02:51:11.198Z,45.18
2022-10-25T02:53:15.534Z,45.06
2022-10-25T02:55:19.924Z,45.01
2022-10-25T02:57:24.286Z,45.04
2022-10-25T02:59:28.612Z,45.06
2022-10-25T03:01:33.617Z,45
2022-10-25T03:03:38.113Z,44.93
2022-10-25T03:05:42.480Z,44.98
2022-10-25T03:07:46.847Z,44.76
2022-10-25T03:09:51.210Z,44.83
2022-10-25T03:11:55.549Z,44.75
2022-10-25T03:13:59.887Z,44.77
2022-10-25T03:16:04.241Z,44.75
2022-10-25T03:18:08.566Z,44.72
2022-10-25T03:20:12.936Z,44.73
2022-10-25T03:22:17.324Z,44.61
2022-10-25T03:24:21.691Z,44.58
2022-10-25T03:26:26.059Z,44.69
2022-10-25T03:28:30.394Z,44.64
2022-10-25T03:30:34.780Z,44.58
2022-10-25T03:32:41.019Z,44.59
2022-10-25T03:34:45.400Z,44.54
2022-10-25T03:36:49.759Z,44.47
2022-10-25T03:38:54.130Z,44.52
2022-10-25T03:40:58.601Z,44.54
2022-10-25T03:43:02.983Z,44.52
2022-10-25T03:45:07.404Z,44.54
2022-10-25T03:47:11.776Z,44.32
2022-10-25T03:49:16.120Z,44.48
2022-10-25T03:51:20.505Z,44.43
2022-10-25T03:53:24.873Z,44.47
2022-10-25T03:55:29.214Z,44.35
2022-10-25T03:57:33.581Z,44.37
2022-10-25T03:59:37.938Z,44.36
2022-10-25T04:01:42.793Z,44.33
2022-10-25T04:03:47.204Z,44.41
2022-10-25T04:05:51.540Z,44.39
2022-10-25T04:07:55.942Z,44.39
2022-10-25T04:10:01.380Z,44.4
2022-10-25T04:12:05.688Z,44.3
2022-10-25T04:14:10.024Z,44.48
2022-10-25T04:16:20.178Z,44.56
2022-10-25T04:18:24.530Z,44.74
2022-10-25T04:20:28.842Z,44.67
2022-10-25T04:22:33.395Z,44.63
2022-10-25T04:24:37.788Z,44.64
2022-10-25T04:26:42.165Z,44.65
2022-10-25T04:28:46.508Z,44.65
2022-10-25T04:30:50.869Z,44.68
2022-10-25T04:32:55.254Z,44.73
2022-10-25T04:34:59.587Z,44.69
2022-10-25T04:37:03.930Z,44.7
2022-10-25T04:39:08.374Z,44.76
2022-10-25T04:41:12.764Z,44.76
2022-10-25T04:43:17.125Z,44.73
2022-10-25T04:45:21.506Z,44.65
2022-10-25T04:47:25.860Z,44.72
2022-10-25T04:49:30.234Z,44.71
2022-10-25T04:51:34.574Z,44.8
2022-10-25T04:53:38.955Z,44.81
2022-10-25T04:55:43.314Z,44.66
2022-10-25T04:57:47.638Z,44.77
2022-10-25T04:59:52.003Z,44.77
2022-10-25T05:01:56.345Z,44.84
2022-10-25T05:04:00.732Z,44.67
2022-10-25T05:06:05.071Z,44.68
2022-10-25T05:08:09.434Z,44.83
2022-10-25T05:10:13.800Z,44.84
2022-10-25T05:12:18.167Z,44.88
2022-10-25T05:14:22.512Z,44.92
2022-10-25T05:16:26.872Z,44.83
2022-10-25T05:18:31.290Z,44.84
2022-10-25T05:20:35.645Z,44.86
2022-10-25T05:22:39.990Z,44.76
2022-10-25T05:24:44.399Z,45.29
2022-10-25T05:26:48.902Z,45.76
2022-10-25T05:28:53.349Z,45.79
2022-10-25T05:30:57.800Z,45.78
2022-10-25T05:33:06.022Z,45.93
2022-10-25T05:35:10.388Z,46.59
2022-10-25T05:37:14.723Z,46.85
2022-10-25T05:39:19.109Z,46.8
2022-10-25T05:41:23.444Z,46.99
2022-10-25T05:43:27.775Z,47.34
2022-10-25T05:45:32.175Z,47.38
2022-10-25T05:47:36.510Z,47.27
2022-10-25T05:49:40.877Z,47.19
2022-10-25T05:51:45.265Z,47.19
2022-10-25T05:53:49.652Z,47.3
2022-10-25T05:55:54.014Z,47.41
2022-10-25T05:57:58.392Z,47.29
2022-10-25T06:00:02.753Z,47.21
2022-10-25T06:02:07.539Z,47.21
2022-10-25T06:04:11.876Z,47.18
2022-10-25T06:06:16.237Z,47.14
2022-10-25T06:08:20.589Z,47.2
2022-10-25T06:10:25.010Z,46.59
2022-10-25T06:12:29.341Z,46.11
2022-10-25T06:14:33.701Z,46.06
2022-10-25T06:16:38.272Z,46.47
2022-10-25T06:18:42.657Z,47.01
2022-10-25T06:20:47.061Z,47.16
2022-10-25T06:22:51.845Z,46.96
2022-10-25T06:24:56.224Z,46.86
2022-10-25T06:27:00.590Z,46.89
2022-10-25T06:29:04.918Z,46.92
2022-10-25T06:31:09.295Z,47.01
2022-10-25T06:33:13.652Z,47.07
2022-10-25T06:35:18.013Z,47.16
2022-10-25T06:37:22.384Z,47.29
2022-10-25T06:39:26.778Z,46.96
2022-10-25T06:41:31.152Z,46.77
2022-10-25T06:43:35.514Z,46.7
2022-10-25T06:45:39.916Z,46.82
2022-10-25T06:47:44.298Z,46.63
2022-10-25T06:49:48.648Z,46.58
2022-10-25T06:51:52.949Z,46.58
2022-10-25T06:53:57.295Z,46.64
2022-10-25T06:56:10.560Z,46.62
2022-10-25T06:58:16.257Z,46.48
2022-10-25T07:00:20.595Z,46.47
2022-10-25T07:02:25.642Z,46.51
2022-10-25T07:04:30.179Z,46.36
2022-10-25T07:06:34.883Z,46.32
2022-10-25T07:08:39.290Z,46.34
2022-10-25T07:10:43.641Z,46.74
2022-10-25T07:12:48.206Z,46.66
2022-10-25T07:14:52.567Z,46.64
2022-10-25T07:16:57.535Z,46.71
2022-10-25T07:19:01.979Z,46.84
2022-10-25T07:21:06.325Z,46.66
2022-10-25T07:23:10.942Z,46.71
2022-10-25T07:25:15.295Z,46.69
2022-10-25T07:27:19.668Z,46.68
2022-10-25T07:29:24.006Z,46.61
2022-10-25T07:31:28.402Z,46.62
2022-10-25T07:33:32.764Z,46.61
2022-10-25T07:36:10.934Z,46.66
2022-10-25T07:38:16.068Z,46.66
2022-10-25T07:40:20.414Z,46.62
2022-10-25T07:42:24.798Z,46.6
2022-10-25T07:44:29.154Z,46.54
2022-10-25T07:46:33.479Z,46.69
2022-10-25T07:48:37.864Z,46.47
2022-10-25T07:50:42.201Z,46.42
2022-10-25T07:52:46.546Z,46.47
2022-10-25T07:54:50.949Z,46.42
2022-10-25T07:56:55.322Z,46.45
2022-10-25T07:58:59.689Z,46.5
2022-10-25T08:01:04.438Z,46.3
2022-10-25T08:03:09.196Z,46.28
2022-10-25T08:05:13.586Z,46.29
2022-10-25T08:07:17.997Z,46.28
2022-10-25T08:09:39.998Z,46.28
2022-10-25T08:11:44.384Z,46.28
2022-10-25T08:13:50.750Z,46.26
2022-10-25T08:15:55.241Z,46.25
2022-10-25T08:18:00.433Z,46.28
2022-10-25T08:20:04.775Z,46.41
2022-10-25T08:22:09.600Z,46.34
2022-10-25T08:24:14.481Z,46.27
2022-10-25T08:26:18.911Z,46.46
2022-10-25T08:28:23.312Z,46.79
2022-10-25T08:30:27.747Z,46.73
2022-10-25T08:32:32.266Z,46.51
2022-10-25T08:34:36.654Z,46.51
2022-10-25T08:36:41.023Z,46.4
2022-10-25T08:38:45.402Z,46.45
2022-10-25T08:40:49.723Z,46.36
2022-10-25T08:42:54.144Z,46.38
2022-10-25T08:44:58.536Z,46.46
2022-10-25T08:47:02.869Z,46.48
2022-10-25T08:49:07.300Z,46.44
2022-10-25T08:51:11.642Z,46.45
2022-10-25T08:53:15.986Z,46.52
2022-10-25T08:55:20.338Z,46.45
2022-10-25T08:57:24.701Z,46.48
2022-10-25T08:59:29.093Z,46.51
2022-10-25T09:01:33.980Z,46.5
2022-10-25T09:03:38.616Z,46.5
2022-10-25T09:05:43.346Z,46.38
2022-10-25T09:07:48.884Z,46.52
2022-10-25T09:09:53.535Z,46.43
2022-10-25T09:11:57.905Z,46.47
2022-10-25T09:14:02.260Z,46.35
2022-10-25T09:16:06.616Z,46.52
2022-10-25T09:18:10.954Z,46.47
2022-10-25T09:20:15.332Z,46.62
2022-10-25T09:22:19.688Z,46.65
2022-10-25T09:24:24.059Z,46.53
2022-10-25T09:26:28.446Z,46.51
2022-10-25T09:28:32.764Z,46.46
2022-10-25T09:30:37.128Z,46.36
2022-10-25T09:32:41.792Z,46.39
2022-10-25T09:34:46.237Z,46.6
2022-10-25T09:36:50.630Z,46.57
2022-10-25T09:38:54.998Z,46.7
2022-10-25T09:40:59.349Z,46.8
2022-10-25T09:43:03.964Z,46.68
2022-10-25T09:45:08.424Z,46.81
2022-10-25T09:47:12.811Z,46.8
2022-10-25T09:49:17.847Z,46.73
2022-10-25T09:51:22.238Z,46.71
2022-10-25T09:53:26.574Z,46.7
2022-10-25T09:55:30.936Z,46.69
2022-10-25T09:57:35.330Z,46.69
2022-10-25T09:59:39.703Z,46.76
2022-10-25T10:01:44.783Z,46.7
2022-10-25T10:03:58.065Z,46.69
2022-10-25T10:06:03.713Z,46.79
2022-10-25T10:08:08.101Z,46.8
2022-10-25T10:10:12.464Z,46.66
2022-10-25T10:12:16.861Z,46.56
2022-10-25T10:14:21.221Z,46.63
2022-10-25T10:16:25.582Z,46.59
2022-10-25T10:18:29.953Z,46.61
2022-10-25T10:20:34.297Z,46.57
2022-10-25T10:22:38.859Z,46.54
2022-10-25T10:24:43.222Z,46.54
2022-10-25T10:26:47.570Z,46.53
2022-10-25T10:28:51.924Z,46.52
2022-10-25T10:30:56.273Z,46.53
2022-10-25T10:33:00.620Z,46.52
2022-10-25T10:35:05.006Z,46.58
2022-10-25T10:37:09.348Z,46.5
2022-10-25T10:39:13.680Z,46.46
2022-10-25T10:41:18.044Z,46.41
2022-10-25T10:43:22.416Z,46.37
2022-10-25T10:45:26.809Z,46.37
2022-10-25T10:47:31.177Z,46.35
2022-10-25T10:49:35.559Z,46.31
2022-10-25T10:51:46.699Z,46.3
2022-10-25T10:53:51.073Z,46.18
2022-10-25T10:55:55.438Z,46.06
2022-10-25T10:57:59.784Z,46.15
2022-10-25T11:00:04.275Z,45.98
2022-10-25T11:02:09.826Z,46.14
2022-10-25T11:04:14.904Z,46
2022-10-25T11:06:19.315Z,46.08
2022-10-25T11:08:23.615Z,46.1
2022-10-25T11:10:27.966Z,46.06
2022-10-25T11:12:32.333Z,45.93
2022-10-25T11:14:36.677Z,45.97
2022-10-25T11:16:41.076Z,45.82
2022-10-25T11:18:45.411Z,45.87
2022-10-25T11:20:49.766Z,45.83
2022-10-25T11:22:54.141Z,45.96
2022-10-25T11:24:58.803Z,45.97
2022-10-25T11:27:03.179Z,45.91
2022-10-25T11:29:07.528Z,45.87
2022-10-25T11:31:11.887Z,45.85
2022-10-25T11:33:16.252Z,45.83
2022-10-25T11:35:20.617Z,45.78
2022-10-25T11:37:24.989Z,45.84
2022-10-25T11:39:29.396Z,45.78
2022-10-25T11:41:33.757Z,45.74
2022-10-25T11:43:38.187Z,45.88
2022-10-25T11:45:42.551Z,46.08
2022-10-25T11:47:46.926Z,46.29
2022-10-25T11:49:58.162Z,46.16
2022-10-25T11:52:02.625Z,46.32
2022-10-25T11:54:07.087Z,46.07
2022-10-25T11:56:11.461Z,45.96
2022-10-25T11:58:15.868Z,46.06
2022-10-25T12:00:20.446Z,46.13
2022-10-25T12:02:25.059Z,46.07
2022-10-25T12:04:35.917Z,45.89
2022-10-25T12:06:41.605Z,45.96
2022-10-25T12:08:45.972Z,45.77
2022-10-25T12:10:50.374Z,45.5
2022-10-25T12:12:54.795Z,45.65
2022-10-25T12:14:59.237Z,45.75
2022-10-25T12:17:03.652Z,45.65
2022-10-25T12:19:07.986Z,45.59
2022-10-25T12:21:12.365Z,45.68
2022-10-25T12:23:16.752Z,45.69
2022-10-25T12:25:21.118Z,45.51
2022-10-25T12:27:25.463Z,45.57
2022-10-25T12:29:29.845Z,45.9
2022-10-25T12:31:34.221Z,45.79
2022-10-25T12:33:38.576Z,45.81
2022-10-25T12:35:42.937Z,45.84
2022-10-25T12:37:56.368Z,45.72
2022-10-25T12:40:02.467Z,45.67
2022-10-25T12:42:06.841Z,45.67
2022-10-25T12:44:11.179Z,45.57
2022-10-25T12:46:15.567Z,45.58
2022-10-25T12:48:19.915Z,45.62
2022-10-25T12:50:24.354Z,45.48
2022-10-25T12:52:28.711Z,45.52
2022-10-25T12:54:34.245Z,45.44
2022-10-25T12:56:38.643Z,45.37
2022-10-25T12:58:43.000Z,45.54
2022-10-25T13:00:47.356Z,45.64
2022-10-25T13:02:52.228Z,45.72
2022-10-25T13:04:56.603Z,45.75
2022-10-25T13:07:01.007Z,45.84
2022-10-25T13:09:05.376Z,46.02
2022-10-25T13:11:09.753Z,46.03
2022-10-25T13:13:14.127Z,45.98
2022-10-25T13:15:18.518Z,45.91
2022-10-25T13:17:22.907Z,45.83
2022-10-25T13:19:56.593Z,46.05
2022-10-25T13:22:00.975Z,45.91
2022-10-25T13:24:05.358Z,45.7
2022-10-25T13:26:09.732Z,45.65
2022-10-25T13:28:14.196Z,45.74
2022-10-25T13:30:19.608Z,45.88
2022-10-25T13:32:23.993Z,45.88
2022-10-25T13:34:28.365Z,45.75
2022-10-25T13:36:32.747Z,45.92
2022-10-25T13:38:41.222Z,45.91
2022-10-25T13:40:45.602Z,46.05
2022-10-25T13:42:51.042Z,46.12
2022-10-25T13:44:55.403Z,46.16
2022-10-25T13:46:59.747Z,46.29
2022-10-25T13:49:04.096Z,46.28
2022-10-25T13:51:08.473Z,46.25
2022-10-25T13:53:12.837Z,46.65
2022-10-25T13:55:17.228Z,46.39
2022-10-25T13:57:22.544Z,46.26
2022-10-25T13:59:26.893Z,45.96
2022-10-25T14:01:31.860Z,45.63
2022-10-25T14:03:36.244Z,45.34
2022-10-25T14:05:40.629Z,45.2
2022-10-25T14:07:44.982Z,44.99
2022-10-25T14:09:49.370Z,45.11
2022-10-25T14:11:54.816Z,45.01
2022-10-25T14:13:59.143Z,44.8
2022-10-25T14:16:03.531Z,44.36
2022-10-25T14:18:07.890Z,44.46
2022-10-25T14:22:17.830Z,44.42
2022-10-25T14:24:22.198Z,44.4
2022-10-25T14:26:26.583Z,44.61
2022-10-25T14:28:30.954Z,45.05
2022-10-25T14:30:35.322Z,44.82
2022-10-25T14:32:39.743Z,44.74
2022-10-25T14:34:44.106Z,44.79
2022-10-25T14:36:48.456Z,44.79
2022-10-25T14:38:52.833Z,44.83
2022-10-25T14:40:57.169Z,44.95
2022-10-25T14:43:01.593Z,45.45
2022-10-25T14:45:50.691Z,44.95
2022-10-25T14:47:55.064Z,44.88
2022-10-25T14:49:59.533Z,45
2022-10-25T14:52:04.004Z,45.07
2022-10-25T14:54:08.409Z,45.1
2022-10-25T14:56:12.774Z,45.11
2022-10-25T14:58:17.260Z,45.1
2022-10-25T15:00:21.696Z,45.17
2022-10-25T15:02:26.139Z,45.28
2022-10-25T15:04:30.535Z,45.15
2022-10-25T15:06:34.929Z,44.9
2022-10-25T15:08:39.278Z,45.14
2022-10-25T15:10:43.644Z,45.21
2022-10-25T15:12:49.050Z,45.46
2022-10-25T15:14:53.699Z,45.09
2022-10-25T15:16:58.160Z,45.55
2022-10-25T15:19:02.678Z,45.65
2022-10-25T15:21:07.052Z,45.46
2022-10-25T15:23:11.403Z,45.83
2022-10-25T15:25:16.318Z,45.5
2022-10-25T15:27:20.715Z,45.5
2022-10-25T15:29:25.050Z,45.32
2022-10-25T15:31:29.508Z,45.05
2022-10-25T15:33:33.885Z,44.74
2022-10-25T15:35:38.329Z,44.95
2022-10-25T15:37:42.689Z,44.45
2022-10-25T15:39:47.236Z,44.79
2022-10-25T15:41:51.617Z,44.56
2022-10-25T15:43:55.912Z,45.07
2022-10-25T15:46:00.411Z,44.55
2022-10-25T15:48:04.762Z,44.61
2022-10-25T15:50:09.099Z,44.48
2022-10-25T15:52:13.917Z,44.65
2022-10-25T15:54:18.354Z,44.66
2022-10-25T15:56:22.754Z,44.45
2022-10-25T15:58:29.565Z,44.26
2022-10-25T16:00:34.097Z,44.32
2022-10-25T16:02:38.519Z,44.36
2022-10-25T16:04:42.982Z,44.37
2022-10-25T16:06:47.459Z,44.46
2022-10-25T16:08:51.857Z,44.22
2022-10-25T16:10:56.253Z,44.3
2022-10-25T16:13:01.667Z,44.6
2022-10-25T16:15:06.039Z,44.25
2022-10-25T16:17:10.399Z,43.99
2022-10-25T16:19:14.751Z,43.89
2022-10-25T16:21:19.138Z,43.74
2022-10-25T16:23:23.577Z,43.71
2022-10-25T16:25:34.411Z,43.61
2022-10-25T16:27:38.796Z,43.58
2022-10-25T16:29:43.200Z,43.47
2022-10-25T16:31:47.559Z,43.41
2022-10-25T16:33:51.918Z,43.46
2022-10-25T16:35:56.351Z,43.45
2022-10-25T16:38:00.937Z,43.33
2022-10-25T16:40:05.351Z,43.22
2022-10-25T16:42:09.660Z,43.32
2022-10-25T16:44:13.998Z,43.25
2022-10-25T16:46:18.432Z,43.14
2022-10-25T16:48:22.792Z,43.09
2022-10-25T16:50:27.250Z,43.08
2022-10-25T16:52:31.707Z,43.22
2022-10-25T16:54:36.097Z,43.31
2022-10-25T16:56:40.427Z,43.35
2022-10-25T16:58:44.830Z,43.61
2022-10-25T17:00:49.489Z,42.25
2022-10-25T17:02:53.939Z,43.33
2022-10-25T17:04:58.299Z,43.67
2022-10-25T17:07:02.694Z,43.47
2022-10-25T17:09:07.101Z,43.34
2022-10-25T17:11:11.574Z,42.3
2022-10-25T17:13:15.918Z,41.39
2022-10-25T17:15:20.287Z,41.21
2022-10-25T17:17:24.765Z,41.31
2022-10-25T17:19:29.334Z,41.37
2022-10-25T17:21:33.711Z,41.52
2022-10-25T17:23:38.124Z,41.75
2022-10-25T17:25:42.478Z,41.83
2022-10-25T17:27:48.000Z,41.97
2022-10-25T17:29:52.837Z,42.41
2022-10-25T17:31:57.270Z,42.46
2022-10-25T17:34:01.652Z,42.41
2022-10-25T17:36:06.026Z,42.71
2022-10-25T17:38:10.439Z,42.69
2022-10-25T17:40:14.791Z,42.71
2022-10-25T17:42:19.255Z,43.04
2022-10-25T17:44:23.628Z,43.38
2022-10-25T17:46:28.002Z,43.69
2022-10-25T17:48:33.533Z,43.23
2022-10-25T17:50:37.930Z,43.55
2022-10-25T17:52:42.436Z,44.47
2022-10-25T17:54:46.924Z,44.7
2022-10-25T17:56:51.324Z,44.72
2022-10-25T17:58:55.713Z,44.26
2022-10-25T18:01:00.302Z,43.74
2022-10-25T18:03:04.718Z,42.9
2022-10-25T18:05:24.541Z,42.55
2022-10-25T18:07:35.861Z,42.52
2022-10-25T18:09:40.249Z,42.32
2022-10-25T18:11:44.655Z,42.47
2022-10-25T18:13:49.065Z,42.51
2022-10-25T18:15:53.460Z,42.82
2022-10-25T18:17:57.905Z,42.91
2022-10-25T18:20:02.309Z,43.09
2022-10-25T18:22:06.691Z,42.99
2022-10-25T18:24:11.062Z,43.06
2022-10-25T18:26:15.464Z,43.07
2022-10-25T18:28:19.846Z,43.1
2022-10-25T18:30:24.227Z,43.13
2022-10-25T18:32:35.239Z,43.16
2022-10-25T18:34:40.717Z,42.96
2022-10-25T18:36:45.085Z,43.17
2022-10-25T18:38:49.447Z,43.08
2022-10-25T18:40:53.829Z,43.05
2022-10-25T18:42:58.232Z,43.25
2022-10-25T18:45:02.616Z,43.11
2022-10-25T18:47:07.018Z,43.27
2022-10-25T18:49:11.387Z,43.3
2022-10-25T18:51:15.767Z,43.46
2022-10-25T18:53:20.173Z,43.52
2022-10-25T18:55:24.624Z,43.48
2022-10-25T18:57:29.005Z,43.75
2022-10-25T18:59:33.355Z,43.84
2022-10-25T19:01:38.191Z,43.93
2022-10-25T19:03:42.635Z,43.95
2022-10-25T19:05:47.018Z,44.18
2022-10-25T19:07:52.219Z,44.47
2022-10-25T19:09:56.610Z,44.63
2022-10-25T19:12:00.961Z,44.56
2022-10-25T19:14:08.372Z,44.61
2022-10-25T19:16:12.728Z,44.54
2022-10-25T19:18:17.164Z,44.41
2022-10-25T19:20:22.743Z,44.19
2022-10-25T19:22:27.185Z,44.46
2022-10-25T19:24:31.578Z,44.44
2022-10-25T19:26:36.105Z,44.24
2022-10-25T19:28:40.470Z,44.01
2022-10-25T19:30:45.240Z,43.95
2022-10-25T19:32:49.611Z,43.96
2022-10-25T19:34:54.113Z,43.9
2022-10-25T19:36:58.530Z,43.85
2022-10-25T19:39:02.983Z,43.95
2022-10-25T19:41:07.361Z,44.13
2022-10-25T19:43:11.783Z,43.96
2022-10-25T19:45:16.215Z,44.03
2022-10-25T19:47:20.605Z,44.03
2022-10-25T19:49:27.320Z,43.31
2022-10-25T19:51:31.715Z,43.45
2022-10-25T19:53:36.154Z,43.81
2022-10-25T19:55:42.410Z,43.4
2022-10-25T19:57:49.031Z,43.42
2022-10-25T19:59:53.617Z,43.29
2022-10-25T20:01:58.657Z,43.15
2022-10-25T20:04:03.172Z,43.16
2022-10-25T20:06:07.596Z,43.03
2022-10-25T20:08:12.006Z,43.05
2022-10-25T20:10:16.388Z,43
2022-10-25T20:12:20.786Z,42.88
2022-10-25T20:14:25.174Z,42.89
2022-10-25T20:16:29.591Z,42.78
2022-10-25T20:18:34.031Z,42.72
2022-10-25T20:20:41.402Z,42.66
2022-10-25T20:22:45.792Z,42.72
2022-10-25T20:24:50.229Z,42.6
2022-10-25T20:26:54.598Z,42.6
2022-10-25T20:29:00.853Z,42.8
2022-10-25T20:31:05.263Z,42.71
2022-10-25T20:33:09.632Z,42.85
2022-10-25T20:35:13.999Z,42.57
2022-10-25T20:37:18.408Z,42.5
2022-10-25T20:39:22.824Z,42.64
2022-10-25T20:41:27.211Z,42.97
2022-10-25T20:43:31.555Z,42.84
2022-10-25T20:45:35.979Z,42.97
2022-10-25T20:47:40.365Z,42.79
2022-10-25T20:49:44.749Z,42.66
2022-10-25T20:51:49.114Z,42.52
2022-10-25T20:53:53.527Z,42.67
2022-10-25T20:55:57.931Z,42.55
2022-10-25T20:58:02.287Z,42.59
2022-10-25T21:00:07.795Z,42.5
2022-10-25T21:02:12.584Z,42.56
2022-10-25T21:05:02.643Z,42.6
2022-10-25T21:07:07.042Z,42.42
2022-10-25T21:09:11.439Z,42.4
2022-10-25T21:11:15.848Z,42.3
2022-10-25T21:13:20.200Z,42.25
2022-10-25T21:15:24.557Z,42.35
2022-10-25T21:17:30.812Z,42.28
2022-10-25T21:19:35.150Z,42.37
2022-10-25T21:21:39.504Z,42.23
2022-10-25T21:23:43.969Z,42.48
2022-10-25T21:25:48.389Z,42.46
2022-10-25T21:27:53.615Z,42.4
2022-10-25T21:29:58.131Z,42.36
2022-10-25T21:32:02.487Z,42.3
2022-10-25T21:34:07.104Z,42.48
2022-10-25T21:36:11.724Z,42.45
2022-10-25T21:38:16.095Z,42.5
2022-10-25T21:40:20.465Z,42.2
2022-10-25T21:42:24.825Z,42.34
2022-10-25T21:44:29.166Z,42.31
2022-10-25T21:46:33.614Z,42.29
2022-10-25T21:48:37.963Z,42.21
2022-10-25T21:50:42.317Z,42.25
2022-10-25T21:52:46.703Z,42.25
2022-10-25T21:54:51.068Z,42.15
2022-10-25T21:56:55.455Z,42.14
2022-10-25T21:58:59.871Z,42.38
2022-10-25T22:01:04.735Z,42.27
2022-10-25T22:03:09.361Z,42.36
2022-10-25T22:05:13.727Z,42.27
2022-10-25T22:07:18.057Z,42.27
2022-10-25T22:09:22.440Z,42.17
2022-10-25T22:11:26.793Z,42.39
2022-10-25T22:13:31.175Z,42.51
2022-10-25T22:15:35.522Z,42.6
2022-10-25T22:17:39.862Z,42.48
2022-10-25T22:19:44.435Z,42.39
2022-10-25T22:21:48.801Z,42.26
2022-10-25T22:23:53.297Z,42.43
2022-10-25T22:25:57.653Z,42.48
2022-10-25T22:28:02.295Z,42.53
2022-10-25T22:30:06.622Z,42.55
2022-10-25T22:32:11.003Z,42.55
2022-10-25T22:34:15.327Z,42.47
2022-10-25T22:36:19.700Z,42.43
2022-10-25T22:38:24.102Z,42.57
2022-10-25T22:40:28.500Z,42.52
2022-10-25T22:42:32.858Z,42.5
2022-10-25T22:44:37.219Z,42.43
2022-10-25T22:46:41.674Z,42.43
2022-10-25T22:48:46.005Z,42.33
2022-10-25T22:50:50.390Z,42.33
2022-10-25T22:52:54.729Z,42.33
2022-10-25T22:54:59.091Z,42.39
2022-10-25T22:57:03.451Z,42.3
2022-10-25T22:59:07.808Z,42.24
2022-10-25T23:01:12.123Z,42.25
2022-10-25T23:03:16.558Z,42.27
2022-10-25T23:05:20.905Z,42.16
2022-10-25T23:07:25.255Z,42.21
2022-10-25T23:09:29.630Z,42.08
2022-10-25T23:11:34.138Z,41.97
2022-10-25T23:13:38.501Z,41.96
2022-10-25T23:15:42.826Z,41.96
2022-10-25T23:17:47.152Z,41.9
2022-10-25T23:19:51.576Z,41.88
2022-10-25T23:21:55.920Z,41.89
2022-10-25T23:24:00.273Z,41.87
2022-10-25T23:26:04.896Z,41.81
2022-10-25T23:28:09.260Z,41.86
2022-10-25T23:30:15.226Z,41.93
2022-10-25T23:32:19.559Z,41.92
2022-10-25T23:34:25.014Z,41.87
2022-10-25T23:36:29.344Z,41.85
2022-10-25T23:38:33.680Z,41.85
2022-10-25T23:40:38.034Z,41.91
2022-10-25T23:42:42.564Z,41.76
2022-10-25T23:44:47.091Z,41.82
2022-10-25T23:46:51.413Z,41.7
2022-10-25T23:48:55.830Z,41.79
2022-10-25T23:51:03.722Z,41.8
2022-10-25T23:53:08.093Z,41.76
2022-10-25T23:55:12.446Z,41.63
2022-10-25T23:57:16.818Z,41.62
2022-10-25T23:59:21.354Z,41.67
